createdAt,value
2018-07-04T00:00:21.906Z,17.10
2018-07-04T00:03:06.964Z,17.10
2018-07-04T00:05:52.097Z,17.00
2018-07-04T00:08:37.265Z,17.00
2018-07-04T00:11:22.506Z,17.00
2018-07-04T00:14:07.555Z,16.90
2018-07-04T00:16:52.664Z,16.90
2018-07-04T00:19:37.737Z,16.90
2018-07-04T00:22:22.912Z,16.80
2018-07-04T00:25:08.037Z,16.90
2018-07-04T00:27:52.972Z,16.90
2018-07-04T00:30:38.018Z,16.90
2018-07-04T00:33:23.241Z,16.90
2018-07-04T00:36:08.461Z,16.90
2018-07-04T00:38:53.606Z,17.00
2018-07-04T00:41:38.762Z,17.00
2018-07-04T00:44:23.910Z,17.00
2018-07-04T00:47:09.412Z,17.00
2018-07-04T00:49:54.604Z,17.00
2018-07-04T00:52:39.797Z,17.00
2018-07-04T00:55:25.069Z,17.00
2018-07-04T00:58:10.169Z,16.90
2018-07-04T01:00:55.225Z,17.00
2018-07-04T01:03:40.393Z,16.90
2018-07-04T01:06:25.758Z,16.80
2018-07-04T01:09:10.902Z,16.80
2018-07-04T01:11:56.116Z,16.70
2018-07-04T01:14:41.317Z,16.70
2018-07-04T01:17:26.468Z,16.60
2018-07-04T01:20:11.694Z,16.50
2018-07-04T01:22:56.969Z,16.40
2018-07-04T01:25:42.124Z,16.40
2018-07-04T01:28:33.215Z,16.30
2018-07-04T01:31:18.427Z,16.20
2018-07-04T01:34:03.526Z,16.20
2018-07-04T01:36:48.909Z,16.20
2018-07-04T01:39:34.101Z,16.20
2018-07-04T01:42:19.206Z,16.00
2018-07-04T01:45:04.277Z,16.10
2018-07-04T01:47:49.261Z,16.10
2018-07-04T01:50:34.324Z,16.10
2018-07-04T01:53:19.427Z,16.00
2018-07-04T01:56:04.609Z,16.00
2018-07-04T01:58:49.921Z,16.00
2018-07-04T02:01:34.941Z,16.00
2018-07-04T02:04:20.006Z,16.00
2018-07-04T02:07:05.121Z,16.00
2018-07-04T02:09:50.152Z,16.00
2018-07-04T02:12:35.331Z,16.00
2018-07-04T02:15:20.737Z,16.00
2018-07-04T02:18:05.898Z,16.00
2018-07-04T02:20:50.970Z,16.10
2018-07-04T02:23:35.969Z,16.00
2018-07-04T02:26:21.140Z,16.00
2018-07-04T02:29:06.204Z,16.00
2018-07-04T02:31:51.421Z,16.10
2018-07-04T02:34:36.705Z,16.10
2018-07-04T02:37:21.823Z,16.10
2018-07-04T02:40:06.989Z,16.00
2018-07-04T02:42:52.170Z,16.00
2018-07-04T02:45:37.595Z,16.00
2018-07-04T02:48:22.768Z,15.90
2018-07-04T02:51:07.882Z,15.90
2018-07-04T02:53:53.148Z,16.00
2018-07-04T02:56:38.305Z,16.00
2018-07-04T02:59:23.433Z,16.00
2018-07-04T03:02:09.414Z,16.00
2018-07-04T03:04:54.509Z,16.00
2018-07-04T03:10:19.144Z,16.00
2018-07-04T03:13:04.300Z,16.00
2018-07-04T03:15:49.589Z,16.00
2018-07-04T03:18:34.816Z,16.10
2018-07-04T03:21:20.049Z,16.10
2018-07-04T03:24:05.409Z,16.10
2018-07-04T03:26:50.682Z,16.00
2018-07-04T03:29:35.733Z,16.00
2018-07-04T03:32:20.665Z,16.00
2018-07-04T03:35:06.010Z,15.90
2018-07-04T03:37:51.170Z,15.90
2018-07-04T03:40:36.245Z,15.90
2018-07-04T03:43:21.513Z,15.90
2018-07-04T03:46:06.757Z,15.90
2018-07-04T03:48:51.897Z,15.90
2018-07-04T03:51:37.080Z,15.80
2018-07-04T03:54:22.369Z,15.80
2018-07-04T03:57:08.751Z,15.80
2018-07-04T03:59:53.881Z,15.70
2018-07-04T04:02:39.128Z,15.80
2018-07-04T04:05:24.404Z,15.80
2018-07-04T04:08:09.558Z,15.80
2018-07-04T04:10:54.732Z,15.80
2018-07-04T04:13:39.753Z,15.80
2018-07-04T04:16:24.953Z,15.80
2018-07-04T04:19:10.109Z,15.80
2018-07-04T04:21:55.175Z,15.90
2018-07-04T04:24:40.308Z,15.90
2018-07-04T04:27:25.525Z,15.90
2018-07-04T04:30:10.579Z,16.00
2018-07-04T04:32:55.789Z,16.00
2018-07-04T04:35:41.000Z,16.00
2018-07-04T04:38:26.189Z,16.10
2018-07-04T04:41:11.213Z,16.20
2018-07-04T04:43:56.402Z,16.30
2018-07-04T04:46:41.537Z,16.50
2018-07-04T04:49:26.764Z,16.50
2018-07-04T04:52:11.991Z,16.70
2018-07-04T04:54:57.179Z,16.90
2018-07-04T05:00:21.861Z,17.10
2018-07-04T05:03:06.982Z,17.20
2018-07-04T05:05:52.328Z,17.40
2018-07-04T05:08:37.723Z,17.60
2018-07-04T05:11:22.968Z,17.70
2018-07-04T05:14:08.177Z,17.70
2018-07-04T05:16:53.277Z,17.70
2018-07-04T05:19:38.329Z,17.80
2018-07-04T05:22:23.400Z,17.90
2018-07-04T05:25:08.482Z,18.30
2018-07-04T05:27:53.516Z,18.40
2018-07-04T05:30:38.800Z,18.50
2018-07-04T05:33:24.044Z,18.60
2018-07-04T05:36:09.257Z,18.60
2018-07-04T05:38:54.434Z,18.90
2018-07-04T05:41:39.650Z,19.40
2018-07-04T05:44:24.837Z,20.20
2018-07-04T05:47:09.949Z,21.10
2018-07-04T05:49:54.941Z,21.90
2018-07-04T05:52:40.014Z,21.70
2018-07-04T05:55:25.298Z,22.40
2018-07-04T05:58:10.117Z,22.50
2018-07-04T06:00:55.325Z,22.20
2018-07-04T06:03:40.500Z,22.10
2018-07-04T06:06:25.854Z,22.30
2018-07-04T06:09:11.188Z,22.30
2018-07-04T06:11:56.488Z,22.50
2018-07-04T06:14:41.641Z,22.60
2018-07-04T06:17:26.938Z,22.50
2018-07-04T06:20:12.097Z,22.90
2018-07-04T06:22:57.345Z,23.10
2018-07-04T06:25:42.675Z,23.30
2018-07-04T06:28:27.836Z,23.50
2018-07-04T06:31:13.262Z,23.50
2018-07-04T06:33:58.467Z,23.40
2018-07-04T06:36:43.684Z,24.10
2018-07-04T06:39:10.081Z,24.50
2018-07-04T06:41:36.441Z,23.80
2018-07-04T06:44:02.874Z,24.00
2018-07-04T06:46:29.276Z,24.10
2018-07-04T06:48:55.694Z,24.40
2018-07-04T06:51:22.092Z,24.00
2018-07-04T06:53:48.433Z,24.30
2018-07-04T06:56:14.804Z,24.40
2018-07-04T06:58:41.226Z,24.50
2018-07-04T07:01:07.657Z,25.20
2018-07-04T07:03:53.081Z,25.60
2018-07-04T07:06:38.305Z,25.10
2018-07-04T07:09:23.620Z,25.00
2018-07-04T07:12:08.705Z,25.20
2018-07-04T07:14:53.868Z,25.10
2018-07-04T07:17:39.081Z,25.40
2018-07-04T07:20:24.179Z,25.30
2018-07-04T07:23:09.289Z,25.50
2018-07-04T07:25:54.544Z,24.90
2018-07-04T07:28:40.046Z,25.10
2018-07-04T07:31:25.271Z,25.10
2018-07-04T07:34:10.776Z,25.50
2018-07-04T07:36:55.837Z,25.60
2018-07-04T07:39:41.052Z,25.50
2018-07-04T07:42:26.209Z,25.60
2018-07-04T07:45:11.547Z,25.60
2018-07-04T07:47:56.905Z,25.20
2018-07-04T07:50:42.006Z,25.20
2018-07-04T07:53:27.220Z,25.20
2018-07-04T07:56:12.660Z,25.30
2018-07-04T07:58:57.860Z,25.70
2018-07-04T08:01:43.113Z,25.70
2018-07-04T08:04:28.346Z,25.50
2018-07-04T08:07:13.764Z,25.70
2018-07-04T08:09:58.905Z,25.90
2018-07-04T08:12:44.122Z,26.20
2018-07-04T08:15:29.595Z,26.40
2018-07-04T08:18:14.664Z,26.60
2018-07-04T08:20:59.869Z,26.40
2018-07-04T08:23:45.300Z,26.90
2018-07-04T08:26:30.556Z,27.00
2018-07-04T08:29:15.809Z,26.80
2018-07-04T08:34:40.201Z,27.40
2018-07-04T08:37:25.477Z,27.30
2018-07-04T08:40:10.845Z,27.40
2018-07-04T08:42:56.185Z,27.60
2018-07-04T08:45:41.517Z,27.50
2018-07-04T08:48:26.834Z,27.60
2018-07-04T08:51:12.262Z,27.80
2018-07-04T08:56:36.717Z,27.80
2018-07-04T08:59:22.016Z,27.90
2018-07-04T09:02:07.160Z,28.30
2018-07-04T09:07:31.556Z,28.90
2018-07-04T09:10:16.532Z,28.90
2018-07-04T09:13:01.921Z,29.20
2018-07-04T09:15:47.100Z,29.20
2018-07-04T09:18:32.303Z,29.30
2018-07-04T09:21:17.566Z,29.60
2018-07-04T09:26:42.077Z,30.00
2018-07-04T09:29:27.416Z,29.70
2018-07-04T09:32:12.625Z,29.60
2018-07-04T09:34:58.068Z,29.60
2018-07-04T09:37:43.280Z,29.90
2018-07-04T09:40:28.654Z,30.30
2018-07-04T09:43:14.022Z,30.60
2018-07-04T09:45:59.196Z,30.30
2018-07-04T09:48:44.477Z,30.40
2018-07-04T09:51:29.672Z,30.30
2018-07-04T09:54:14.873Z,30.30
2018-07-04T09:57:00.074Z,30.50
2018-07-04T09:59:45.369Z,30.70
2018-07-04T10:02:30.457Z,31.00
2018-07-04T10:05:15.620Z,31.20
2018-07-04T10:08:00.924Z,31.50
2018-07-04T10:10:46.282Z,31.40
2018-07-04T10:13:31.267Z,31.50
2018-07-04T10:16:16.404Z,31.80
2018-07-04T10:19:01.513Z,32.00
2018-07-04T10:21:46.711Z,32.70
2018-07-04T10:24:31.845Z,33.20
2018-07-04T10:27:17.139Z,32.80
2018-07-04T10:30:02.413Z,33.50
2018-07-04T10:32:47.557Z,33.70
2018-07-04T10:35:32.792Z,33.50
2018-07-04T10:38:18.229Z,33.30
2018-07-04T10:41:03.453Z,34.40
2018-07-04T10:43:48.620Z,35.60
2018-07-04T10:46:33.829Z,35.30
2018-07-04T10:49:18.992Z,35.70
2018-07-04T10:52:04.134Z,36.60
2018-07-04T10:54:49.360Z,36.50
2018-07-04T10:57:34.585Z,36.50
2018-07-04T11:00:19.621Z,36.60
2018-07-04T11:03:04.793Z,36.30
2018-07-04T11:05:49.996Z,36.90
2018-07-04T11:08:35.629Z,37.10
2018-07-04T11:11:20.768Z,37.20
2018-07-04T11:14:05.997Z,37.20
2018-07-04T11:16:51.285Z,36.40
2018-07-04T11:19:36.408Z,36.50
2018-07-04T11:22:21.419Z,36.90
2018-07-04T11:25:06.496Z,36.60
2018-07-04T11:27:51.589Z,37.00
2018-07-04T11:30:36.668Z,36.10
2018-07-04T11:33:21.777Z,36.60
2018-07-04T11:41:25.716Z,36.10
2018-07-04T11:46:31.625Z,35.40
2018-07-04T11:48:59.612Z,35.40
2018-07-04T11:51:26.009Z,34.40
2018-07-04T11:53:52.393Z,34.90
2018-07-04T11:56:18.800Z,36.20
2018-07-04T11:58:45.158Z,36.50
2018-07-04T12:01:11.572Z,36.60
2018-07-04T12:03:56.652Z,37.40
2018-07-04T12:06:41.725Z,37.70
2018-07-04T12:09:08.162Z,37.70
2018-07-04T12:11:34.585Z,38.30
2018-07-04T12:14:01.030Z,38.20
2018-07-04T12:16:27.456Z,37.70
2018-07-04T12:18:53.848Z,38.30
2018-07-04T12:21:20.257Z,37.60
2018-07-04T12:23:46.659Z,37.10
2018-07-04T12:26:13.121Z,37.20
2018-07-04T12:28:39.521Z,38.10
2018-07-04T12:31:05.909Z,37.80
2018-07-04T12:33:32.333Z,37.60
2018-07-04T12:35:58.733Z,38.20
2018-07-04T12:38:25.092Z,37.70
2018-07-04T12:43:18.415Z,39.10
2018-07-04T12:45:44.749Z,38.30
2018-07-04T12:48:11.156Z,39.20
2018-07-04T12:50:37.577Z,38.40
2018-07-04T12:53:03.969Z,38.30
2018-07-04T12:55:49.118Z,39.20
2018-07-04T12:58:34.307Z,39.30
2018-07-04T13:01:19.526Z,39.30
2018-07-04T13:04:04.545Z,38.50
2018-07-04T13:06:49.721Z,37.20
2018-07-04T13:09:34.821Z,37.00
2018-07-04T13:12:19.942Z,36.40
2018-07-04T13:15:05.229Z,36.80
2018-07-04T13:17:50.537Z,36.60
2018-07-04T13:23:19.771Z,36.50
2018-07-04T13:26:05.392Z,36.50
2018-07-04T13:31:31.115Z,36.70
2018-07-04T13:34:16.368Z,37.20
2018-07-04T13:37:03.536Z,37.20
2018-07-04T13:39:50.108Z,36.20
2018-07-04T13:42:35.999Z,36.30
2018-07-04T13:45:21.253Z,35.50
2018-07-04T13:48:06.462Z,34.90
2018-07-04T13:50:51.565Z,35.30
2018-07-04T13:53:36.673Z,35.20
2018-07-04T13:56:21.680Z,34.60
2018-07-04T13:59:06.801Z,34.00
2018-07-04T14:01:52.238Z,33.50
2018-07-04T14:04:37.528Z,33.10
2018-07-04T14:07:22.790Z,32.30
2018-07-04T14:10:07.972Z,31.90
2018-07-04T14:12:53.135Z,31.50
2018-07-04T14:15:38.489Z,31.30
2018-07-04T14:18:23.617Z,31.30
2018-07-04T14:21:08.791Z,31.20
2018-07-04T14:23:54.017Z,31.30
2018-07-04T14:26:39.277Z,31.20
2018-07-04T14:29:24.431Z,31.20
2018-07-04T14:32:09.609Z,31.20
2018-07-04T14:34:54.892Z,31.00
2018-07-04T14:37:40.341Z,31.10
2018-07-04T14:40:25.491Z,30.90
2018-07-04T14:43:10.668Z,30.60
2018-07-04T14:45:55.937Z,30.80
2018-07-04T14:48:41.293Z,30.70
2018-07-04T14:51:26.604Z,30.90
2018-07-04T14:54:11.757Z,30.40
2018-07-04T14:56:57.101Z,30.60
2018-07-04T14:59:42.228Z,30.50
2018-07-04T15:02:27.469Z,30.10
2018-07-04T15:05:12.761Z,29.90
2018-07-04T15:07:58.289Z,29.80
2018-07-04T15:10:44.225Z,29.60
2018-07-04T15:13:29.310Z,29.70
2018-07-04T15:16:15.509Z,29.70
2018-07-04T15:19:00.701Z,29.90
2018-07-04T15:21:45.961Z,29.90
2018-07-04T15:24:31.253Z,29.90
2018-07-04T15:27:17.040Z,29.80
2018-07-04T15:30:02.122Z,29.20
2018-07-04T15:32:47.318Z,29.40
2018-07-04T15:35:32.481Z,29.40
2018-07-04T15:38:17.892Z,29.30
2018-07-04T15:41:03.169Z,29.10
2018-07-04T15:43:48.329Z,29.30
2018-07-04T15:46:33.408Z,29.00
2018-07-04T15:49:18.743Z,28.80
2018-07-04T15:52:03.944Z,29.10
2018-07-04T15:54:49.210Z,29.20
2018-07-04T15:57:40.832Z,29.10
2018-07-04T16:00:26.075Z,29.30
2018-07-04T16:03:11.586Z,29.40
2018-07-04T16:08:42.504Z,29.20
2018-07-04T16:11:27.661Z,28.90
2018-07-04T16:14:13.071Z,29.20
2018-07-04T16:16:58.450Z,29.00
2018-07-04T16:19:43.653Z,28.50
2018-07-04T16:22:28.956Z,28.80
2018-07-04T16:25:14.452Z,28.40
2018-07-04T16:27:59.582Z,28.30
2018-07-04T16:30:44.598Z,28.10
2018-07-04T16:33:29.970Z,28.30
2018-07-04T16:36:15.341Z,28.40
2018-07-04T16:39:00.590Z,28.30
2018-07-04T16:41:45.861Z,27.70
2018-07-04T16:44:31.241Z,27.70
2018-07-04T16:47:16.529Z,27.70
2018-07-04T16:50:01.791Z,27.80
2018-07-04T16:52:46.999Z,27.80
2018-07-04T16:55:32.090Z,27.60
2018-07-04T16:58:17.177Z,27.30
2018-07-04T17:01:02.408Z,27.40
2018-07-04T17:03:47.626Z,27.00
2018-07-04T17:06:32.818Z,26.90
2018-07-04T17:09:18.037Z,27.10
2018-07-04T17:12:03.402Z,26.90
2018-07-04T17:14:48.657Z,26.90
2018-07-04T17:17:33.782Z,26.80
2018-07-04T17:20:18.976Z,26.70
2018-07-04T17:23:04.312Z,26.50
2018-07-04T17:25:49.668Z,26.30
2018-07-04T17:28:38.736Z,26.30
2018-07-04T17:31:23.953Z,26.20
2018-07-04T17:34:09.249Z,26.30
2018-07-04T17:36:54.545Z,26.30
2018-07-04T17:39:39.684Z,26.20
2018-07-04T17:42:24.799Z,26.20
2018-07-04T17:45:10.333Z,26.10
2018-07-04T17:47:55.505Z,26.10
2018-07-04T17:50:43.105Z,26.00
2018-07-04T17:53:28.370Z,26.00
2018-07-04T17:56:13.563Z,26.00
2018-07-04T17:58:58.725Z,26.00
2018-07-04T18:01:44.307Z,26.00
2018-07-04T18:04:29.432Z,26.00
2018-07-04T18:07:14.553Z,25.90
2018-07-04T18:09:59.833Z,25.90
2018-07-04T18:15:24.209Z,25.90
2018-07-04T18:18:09.407Z,25.70
2018-07-04T18:20:54.612Z,25.60
2018-07-04T18:23:39.668Z,25.60
2018-07-04T18:26:24.830Z,25.70
2018-07-04T18:29:10.015Z,25.60
2018-07-04T18:31:55.114Z,25.70
2018-07-04T18:34:40.339Z,25.50
2018-07-04T18:37:26.170Z,25.50
2018-07-04T18:40:11.477Z,25.50
2018-07-04T18:42:56.860Z,25.60
2018-07-04T18:45:42.145Z,25.70
2018-07-04T18:48:27.452Z,25.60
2018-07-04T18:51:12.601Z,25.50
2018-07-04T18:53:57.894Z,25.40
2018-07-04T18:56:43.050Z,25.20
2018-07-04T18:59:28.549Z,25.00
2018-07-04T19:02:13.652Z,25.00
2018-07-04T19:04:59.092Z,25.00
2018-07-04T19:07:44.376Z,24.90
2018-07-04T19:10:29.565Z,24.80
2018-07-04T19:13:14.901Z,24.90
2018-07-04T19:16:00.101Z,24.90
2018-07-04T19:18:45.296Z,24.80
2018-07-04T19:21:30.453Z,24.80
2018-07-04T19:24:15.769Z,24.70
2018-07-04T19:27:00.936Z,24.60
2018-07-04T19:29:46.283Z,24.50
2018-07-04T19:32:31.353Z,24.40
2018-07-04T19:37:55.981Z,24.20
2018-07-04T19:40:41.361Z,24.10
2018-07-04T19:43:26.628Z,24.10
2018-07-04T19:46:12.037Z,24.00
2018-07-04T19:48:57.548Z,23.80
2018-07-04T19:51:42.736Z,23.70
2018-07-04T19:54:27.805Z,23.70
2018-07-04T19:57:12.981Z,23.50
2018-07-04T19:59:58.100Z,23.40
2018-07-04T20:05:22.644Z,23.30
2018-07-04T20:08:07.907Z,23.10
2018-07-04T20:10:53.292Z,23.00
2018-07-04T20:13:38.600Z,23.00
2018-07-04T20:16:23.707Z,22.90
2018-07-04T20:19:09.111Z,22.80
2018-07-04T20:21:54.332Z,22.70
2018-07-04T20:24:39.520Z,22.70
2018-07-04T20:27:24.638Z,22.60
2018-07-04T20:30:09.729Z,22.50
2018-07-04T20:32:54.875Z,22.50
2018-07-04T20:35:39.959Z,22.40
2018-07-04T20:38:25.269Z,22.40
2018-07-04T20:41:10.432Z,22.30
2018-07-04T20:43:55.483Z,22.30
2018-07-04T20:46:40.721Z,22.10
2018-07-04T20:52:05.251Z,22.10
2018-07-04T20:54:50.405Z,22.00
2018-07-04T20:57:35.796Z,22.00
2018-07-04T21:00:21.072Z,21.90
2018-07-04T21:03:06.229Z,21.90
2018-07-04T21:05:51.419Z,21.80
2018-07-04T21:08:36.674Z,21.80
2018-07-04T21:11:21.876Z,21.70
2018-07-04T21:14:07.030Z,21.60
2018-07-04T21:16:52.153Z,21.70
2018-07-04T21:19:37.201Z,21.70
2018-07-04T21:22:22.332Z,21.60
2018-07-04T21:27:46.733Z,21.60
2018-07-04T21:33:11.238Z,21.50
2018-07-04T21:38:36.066Z,21.30
2018-07-04T21:41:21.410Z,21.20
2018-07-04T21:44:06.697Z,21.20
2018-07-04T21:46:51.922Z,21.10
2018-07-04T21:49:36.954Z,21.00
2018-07-04T21:52:21.957Z,20.90
2018-07-04T21:55:07.079Z,20.90
2018-07-04T21:57:52.108Z,20.80
2018-07-04T22:00:37.261Z,20.60
2018-07-04T22:03:22.534Z,20.60
2018-07-04T22:08:46.865Z,20.40
2018-07-04T22:11:32.101Z,20.20
2018-07-04T22:16:56.610Z,20.10
2018-07-04T22:19:41.741Z,20.00
2018-07-04T22:22:26.923Z,20.00
2018-07-04T22:27:51.336Z,19.90
2018-07-04T22:30:36.637Z,19.80
2018-07-04T22:33:22.009Z,19.80
2018-07-04T22:36:07.288Z,19.70
2018-07-04T22:38:52.506Z,19.70
2018-07-04T22:41:37.589Z,19.50
2018-07-04T22:44:23.028Z,19.50
2018-07-04T22:47:08.596Z,19.40
2018-07-04T22:49:53.918Z,19.20
2018-07-04T22:52:39.193Z,19.10
2018-07-04T22:55:24.317Z,19.00
2018-07-04T22:58:09.460Z,19.00
2018-07-04T23:00:54.581Z,19.00
2018-07-04T23:03:39.917Z,18.90
2018-07-04T23:06:24.977Z,18.80
2018-07-04T23:09:10.137Z,18.70
2018-07-04T23:11:55.158Z,18.70
2018-07-04T23:14:40.393Z,18.50
2018-07-04T23:17:25.636Z,18.50
2018-07-04T23:20:10.731Z,18.60
2018-07-04T23:25:35.362Z,18.40
2018-07-04T23:28:20.697Z,18.30
2018-07-04T23:31:05.745Z,18.20
2018-07-04T23:33:50.796Z,18.20
2018-07-04T23:36:36.033Z,18.20
2018-07-04T23:39:21.444Z,18.20
2018-07-04T23:42:06.674Z,18.10
2018-07-04T23:44:51.985Z,18.10
2018-07-04T23:47:37.137Z,18.00
2018-07-04T23:50:22.241Z,18.00
2018-07-04T23:53:07.421Z,18.00
2018-07-04T23:55:52.772Z,18.00
2018-07-04T23:58:37.804Z,17.80
